Time;durP1;ratioP1;P1;durP2;ratioP2;P2;SDS_P1;SDS_P2;PMS_P1;PMS_P2;Temp;Humidity;BMP_temperature;BMP_pressure;BME280_temperature;BME280_humidity;BME280_pressure;Samples;Min_cycle;Max_cycle;Signal;HPM_P1;HPM_P2
2021/08/21 00:01:55;;;;;;;15.85;11.15;;;15.20;99.90;;;;;;5068582;28;20313;-73
2021/08/21 00:04:21;;;;;;;13.50;10.75;;;15.20;99.90;;;;;;5053074;28;20032;-74
2021/08/21 00:06:47;;;;;;;15.63;11.68;;;15.20;99.90;;;;;;5052662;28;20431;-73
2021/08/21 00:09:13;;;;;;;17.45;11.93;;;15.20;99.90;;;;;;5051818;28;20052;-74
2021/08/21 00:11:39;;;;;;;14.02;11.32;;;15.10;99.90;;;;;;5053321;28;20387;-74
2021/08/21 00:14:05;;;;;;;18.35;11.85;;;15.10;99.90;;;;;;5051900;28;20033;-74
2021/08/21 00:16:31;;;;;;;18.80;11.77;;;15.00;99.90;;;;;;5052775;28;20025;-73
2021/08/21 00:18:58;;;;;;;22.05;12.93;;;15.10;99.90;;;;;;5053123;28;20109;-73
2021/08/21 00:21:24;;;;;;;16.90;12.35;;;15.00;99.90;;;;;;5053876;28;20510;-74
2021/08/21 00:23:49;;;;;;;13.18;11.75;;;15.00;99.90;;;;;;5053146;28;20029;-73
2021/08/21 00:26:15;;;;;;;18.83;11.38;;;14.90;99.90;;;;;;5055897;28;20506;-74
2021/08/21 00:28:40;;;;;;;15.23;10.88;;;14.80;99.90;;;;;;5055498;28;20102;-74
2021/08/21 00:31:06;;;;;;;13.98;12.18;;;14.90;99.90;;;;;;5075719;28;20013;-72
2021/08/21 00:33:32;;;;;;;18.30;11.50;;;14.80;99.90;;;;;;5056959;28;20035;-74
2021/08/21 00:35:58;;;;;;;14.73;11.23;;;14.80;99.90;;;;;;5051699;28;20036;-74
2021/08/21 00:38:24;;;;;;;14.02;12.15;;;14.80;99.90;;;;;;5052201;28;20025;-74
2021/08/21 00:40:49;;;;;;;12.13;10.82;;;14.80;99.90;;;;;;5052328;28;20033;-73
2021/08/21 00:43:17;;;;;;;13.50;11.95;;;14.80;99.90;;;;;;5052444;28;20035;-73
2021/08/21 00:45:42;;;;;;;15.10;12.20;;;14.80;99.90;;;;;;5051585;28;20029;-74
2021/08/21 00:48:08;;;;;;;16.50;12.77;;;14.80;99.90;;;;;;5052551;28;20067;-73
2021/08/21 00:50:34;;;;;;;13.65;10.32;;;14.70;99.90;;;;;;5051982;28;20028;-75
2021/08/21 00:53:00;;;;;;;14.18;11.20;;;14.70;99.90;;;;;;5052867;28;20025;-74
2021/08/21 00:55:26;;;;;;;12.95;10.13;;;14.70;99.90;;;;;;5050871;28;20552;-74
2021/08/21 00:57:52;;;;;;;18.75;12.30;;;14.70;99.90;;;;;;5052494;28;20029;-74
2021/08/21 01:00:18;;;;;;;15.98;10.65;;;14.70;99.90;;;;;;5055331;28;20530;-73
2021/08/21 01:02:44;;;;;;;14.50;11.02;;;14.70;99.90;;;;;;5057179;28;20033;-74
2021/08/21 01:05:14;;;;;;;19.02;12.23;;;14.60;99.90;;;;;;5050925;28;20029;-74
2021/08/21 01:07:40;;;;;;;19.13;12.40;;;14.60;99.90;;;;;;5084646;22;20119;-73
2021/08/21 01:10:14;;;;;;;14.50;11.57;;;14.60;99.90;;;;;;5013834;28;20026;-73
2021/08/21 01:12:41;;;;;;;16.92;12.10;;;14.60;99.90;;;;;;5031558;28;20025;-73
2021/08/21 01:15:08;;;;;;;15.75;11.88;;;14.60;99.90;;;;;;5029860;28;20029;-73
2021/08/21 01:17:35;;;;;;;16.92;11.98;;;14.60;99.90;;;;;;5026913;28;20021;-73
2021/08/21 01:20:01;;;;;;;17.40;12.90;;;14.50;99.90;;;;;;5030461;28;20044;-73
2021/08/21 01:22:28;;;;;;;19.15;12.20;;;14.50;99.90;;;;;;5031725;28;20022;-73
2021/08/21 01:24:55;;;;;;;17.15;13.75;;;14.40;99.90;;;;;;5030803;28;20059;-73
2021/08/21 01:27:23;;;;;;;19.20;12.65;;;14.40;99.90;;;;;;5031336;28;20502;-73
2021/08/21 01:29:50;;;;;;;15.63;11.88;;;14.40;99.90;;;;;;5030172;28;20025;-73
2021/08/21 01:32:16;;;;;;;16.08;13.07;;;14.40;99.90;;;;;;5031584;28;20025;-73
2021/08/21 01:34:42;;;;;;;16.05;12.88;;;14.40;99.90;;;;;;5029662;28;20017;-73
2021/08/21 01:37:09;;;;;;;16.92;12.05;;;14.30;99.90;;;;;;5030001;28;20088;-74
2021/08/21 01:39:34;;;;;;;18.30;11.85;;;14.30;99.90;;;;;;5037443;28;20081;-73
2021/08/21 01:42:00;;;;;;;16.95;11.32;;;14.30;99.90;;;;;;5037808;28;20116;-74
2021/08/21 01:44:26;;;;;;;16.08;11.93;;;14.30;99.90;;;;;;5037412;28;20068;-74
2021/08/21 01:46:52;;;;;;;18.52;12.30;;;14.40;99.90;;;;;;5037858;28;20041;-74
2021/08/21 01:49:22;;;;;;;13.68;12.27;;;14.30;99.90;;;;;;5037906;28;20416;-74
2021/08/21 01:51:49;;;;;;;16.90;12.50;;;14.30;99.90;;;;;;5038328;28;20390;-73
2021/08/21 01:54:23;;;;;;;17.50;12.18;;;14.30;99.90;;;;;;5037752;28;20018;-74
2021/08/21 01:56:50;;;;;;;16.17;11.32;;;14.20;99.90;;;;;;5037974;28;20113;-74
2021/08/21 01:59:36;;;;;;;15.18;11.85;;;14.20;99.90;;;;;;5037664;28;20033;-74
2021/08/21 02:02:03;;;;;;;16.02;12.65;;;14.20;99.90;;;;;;5037864;28;20021;-74
2021/08/21 02:04:29;;;;;;;20.75;11.50;;;14.20;99.90;;;;;;5034807;28;20410;-73
2021/08/21 02:06:55;;;;;;;14.40;11.40;;;14.20;99.90;;;;;;5037377;28;20039;-72
2021/08/21 02:09:22;;;;;;;15.10;11.77;;;14.10;99.90;;;;;;5037550;28;20083;-73
2021/08/21 02:11:50;;;;;;;13.48;11.57;;;14.10;99.90;;;;;;5037217;28;20045;-73
2021/08/21 02:14:17;;;;;;;17.27;12.05;;;14.10;99.90;;;;;;5037105;28;20030;-72
2021/08/21 02:16:46;;;;;;;18.42;10.73;;;14.00;99.90;;;;;;5037711;28;20036;-73
2021/08/21 02:19:11;;;;;;;13.88;10.98;;;14.10;99.90;;;;;;5035082;28;20029;-73
2021/08/21 02:21:38;;;;;;;15.30;11.10;;;14.00;99.90;;;;;;5037576;28;20029;-72
2021/08/21 02:24:05;;;;;;;13.75;10.80;;;14.00;99.90;;;;;;5037564;28;20025;-73
2021/08/21 02:26:30;;;;;;;18.50;11.90;;;14.00;99.90;;;;;;5036733;28;20021;-74
2021/08/21 02:28:56;;;;;;;13.68;11.07;;;14.00;99.90;;;;;;5037557;28;20029;-73
2021/08/21 02:31:22;;;;;;;12.85;10.80;;;13.90;99.90;;;;;;5037463;28;20623;-73
2021/08/21 02:33:49;;;;;;;17.55;10.95;;;13.90;99.90;;;;;;5037179;28;20056;-73
2021/08/21 02:36:15;;;;;;;14.65;11.02;;;13.90;99.90;;;;;;5036682;28;20029;-73
2021/08/21 02:38:42;;;;;;;13.70;10.90;;;13.80;99.90;;;;;;5036186;28;20037;-73
2021/08/21 02:41:08;;;;;;;16.30;11.55;;;13.80;99.90;;;;;;5036200;28;20032;-73
2021/08/21 02:43:34;;;;;;;18.25;12.18;;;13.80;99.90;;;;;;5037336;28;20021;-73
2021/08/21 02:45:59;;;;;;;17.88;12.25;;;13.70;99.90;;;;;;5036657;28;20029;-73
2021/08/21 02:48:25;;;;;;;15.93;12.82;;;13.80;99.90;;;;;;5037303;28;20029;-73
2021/08/21 02:50:52;;;;;;;16.10;13.00;;;13.70;99.90;;;;;;5032247;28;20026;-73
2021/08/21 02:53:18;;;;;;;14.95;12.45;;;13.70;99.90;;;;;;5034216;28;20383;-73
2021/08/21 02:55:44;;;;;;;19.75;13.02;;;13.80;99.90;;;;;;5033459;28;20026;-73
2021/08/21 02:58:09;;;;;;;15.05;12.43;;;13.80;99.90;;;;;;5034154;28;20199;-73
2021/08/21 03:00:35;;;;;;;15.85;12.82;;;13.80;99.90;;;;;;5032621;28;20137;-73
2021/08/21 03:03:01;;;;;;;17.13;13.77;;;13.80;99.90;;;;;;5034067;28;20655;-73
2021/08/21 03:05:26;;;;;;;16.95;11.82;;;13.80;99.90;;;;;;5033232;28;20044;-73
2021/08/21 03:07:52;;;;;;;18.02;12.15;;;13.80;99.90;;;;;;5033991;28;20076;-74
2021/08/21 03:10:17;;;;;;;13.35;11.23;;;13.70;99.90;;;;;;5033575;28;20056;-73
2021/08/21 03:12:44;;;;;;;16.42;12.43;;;13.70;99.90;;;;;;5033931;28;20421;-73
2021/08/21 03:15:10;;;;;;;15.55;12.63;;;13.70;99.90;;;;;;5032936;28;20483;-74
2021/08/21 03:17:35;;;;;;;14.05;12.05;;;13.70;99.90;;;;;;5033630;28;20065;-74
2021/08/21 03:20:01;;;;;;;12.07;10.55;;;13.70;99.90;;;;;;5033711;28;20030;-73
2021/08/21 03:22:27;;;;;;;12.07;10.77;;;13.60;99.90;;;;;;5033811;28;20025;-72
2021/08/21 03:24:52;;;;;;;16.83;11.35;;;13.50;99.90;;;;;;5032966;28;20033;-73
2021/08/21 03:27:19;;;;;;;15.45;11.85;;;13.60;99.90;;;;;;5033814;28;20103;-73
2021/08/21 03:29:45;;;;;;;14.90;11.80;;;13.70;99.90;;;;;;5033480;28;20021;-73
2021/08/21 03:32:10;;;;;;;15.65;11.90;;;13.70;99.90;;;;;;5033799;28;20029;-73
2021/08/21 03:34:37;;;;;;;13.38;11.43;;;13.60;99.90;;;;;;5033082;28;20029;-73
2021/08/21 03:37:04;;;;;;;16.23;12.02;;;13.50;99.90;;;;;;5033500;28;20487;-73
2021/08/21 03:39:30;;;;;;;13.93;11.73;;;13.50;99.90;;;;;;5037879;28;20029;-73
2021/08/21 03:41:55;;;;;;;15.70;12.00;;;13.50;99.90;;;;;;5039235;28;20026;-73
2021/08/21 03:44:21;;;;;;;16.88;12.75;;;13.50;99.90;;;;;;5033066;28;20372;-72
2021/08/21 03:46:46;;;;;;;15.65;11.80;;;13.50;99.90;;;;;;5033150;28;20160;-73
2021/08/21 03:49:12;;;;;;;17.08;12.57;;;13.50;99.90;;;;;;5033174;28;20028;-73
2021/08/21 03:51:38;;;;;;;16.17;12.50;;;13.50;99.90;;;;;;5033253;28;20029;-73
2021/08/21 03:54:05;;;;;;;21.92;13.82;;;13.50;99.90;;;;;;5033108;28;20099;-73
2021/08/21 03:56:30;;;;;;;16.65;13.20;;;13.50;99.90;;;;;;5032188;28;20034;-73
2021/08/21 03:58:56;;;;;;;13.88;12.13;;;13.50;99.90;;;;;;5031666;28;20028;-73
2021/08/21 04:01:22;;;;;;;14.00;11.88;;;13.50;99.90;;;;;;5032715;28;20030;-73
2021/08/21 04:03:47;;;;;;;17.05;11.85;;;13.40;99.90;;;;;;5032858;28;20069;-72
2021/08/21 04:06:13;;;;;;;13.60;10.80;;;13.50;99.90;;;;;;5032005;28;20037;-72
2021/08/21 04:08:38;;;;;;;14.98;11.50;;;13.50;99.90;;;;;;5033016;28;20076;-73
2021/08/21 04:11:04;;;;;;;16.75;12.32;;;13.40;99.90;;;;;;5032953;28;20029;-72
2021/08/21 04:13:30;;;;;;;14.50;11.07;;;13.40;99.90;;;;;;5032932;28;20029;-73
2021/08/21 04:15:55;;;;;;;15.35;11.73;;;13.40;99.90;;;;;;5031653;28;20475;-73
2021/08/21 04:18:21;;;;;;;14.95;12.38;;;13.40;99.90;;;;;;5032307;28;20092;-72
2021/08/21 04:20:47;;;;;;;16.55;11.85;;;13.20;99.90;;;;;;5032616;28;20091;-72
2021/08/21 04:23:13;;;;;;;15.30;12.52;;;13.30;99.90;;;;;;5032554;28;20468;-72
2021/08/21 04:25:39;;;;;;;18.35;12.10;;;13.40;99.90;;;;;;5031777;28;20030;-73
2021/08/21 04:28:05;;;;;;;16.25;11.30;;;13.40;99.90;;;;;;5032519;28;20025;-72
2021/08/21 04:30:30;;;;;;;16.70;12.55;;;13.40;99.90;;;;;;5031002;28;20450;-72
2021/08/21 04:32:56;;;;;;;13.82;12.02;;;13.40;99.90;;;;;;5032371;28;20017;-72
2021/08/21 04:35:22;;;;;;;18.60;11.38;;;13.40;99.90;;;;;;5031885;28;20112;-72
2021/08/21 04:37:48;;;;;;;16.08;11.68;;;13.40;99.90;;;;;;5032177;28;20053;-75
2021/08/21 04:40:14;;;;;;;15.93;12.20;;;13.50;99.90;;;;;;5023508;28;20510;-74
2021/08/21 04:42:40;;;;;;;15.85;12.27;;;13.60;99.90;;;;;;5031023;28;20025;-73
2021/08/21 04:45:06;;;;;;;12.77;11.20;;;13.50;99.90;;;;;;5021944;28;20038;-73
2021/08/21 04:47:32;;;;;;;20.10;12.80;;;13.50;99.90;;;;;;5030557;28;20028;-73
2021/08/21 04:49:58;;;;;;;15.60;12.30;;;13.70;99.90;;;;;;5029930;28;20026;-73
2021/08/21 04:52:24;;;;;;;15.05;11.25;;;13.70;99.90;;;;;;5031496;28;20030;-74
2021/08/21 04:54:50;;;;;;;14.95;10.05;;;13.60;99.90;;;;;;5031265;28;20112;-73
2021/08/21 04:57:17;;;;;;;12.88;10.50;;;13.80;99.90;;;;;;5031390;28;20033;-73
2021/08/21 04:59:43;;;;;;;10.77;9.35;;;13.80;99.90;;;;;;5012878;28;20488;-73
2021/08/21 05:02:09;;;;;;;10.68;9.57;;;13.80;99.90;;;;;;5011528;28;20121;-73
2021/08/21 05:04:34;;;;;;;11.02;9.88;;;13.80;99.90;;;;;;5011389;28;20543;-73
2021/08/21 05:07:00;;;;;;;12.63;9.80;;;14.00;99.90;;;;;;5011854;28;20116;-73
2021/08/21 05:09:26;;;;;;;11.77;10.27;;;14.00;99.90;;;;;;5011350;28;20084;-73
2021/08/21 05:11:52;;;;;;;14.50;9.50;;;13.90;99.90;;;;;;5011436;28;20018;-73
2021/08/21 05:14:18;;;;;;;11.02;9.02;;;13.80;99.90;;;;;;5010486;28;20401;-73
2021/08/21 05:16:46;;;;;;;13.52;9.95;;;13.90;99.90;;;;;;5010278;28;20057;-74
2021/08/21 05:20:04;;;;;;;11.88;9.45;;;14.00;99.90;;;;;;5017112;28;20025;-74
2021/08/21 05:22:20;;;;;;;10.88;8.80;;;14.00;99.90;;;;;;5020312;28;20037;-73
2021/08/21 05:24:44;;;;;;;11.07;8.77;;;14.00;99.90;;;;;;5030185;28;20025;-74
2021/08/21 05:27:10;;;;;;;12.40;9.88;;;13.80;99.90;;;;;;5031346;28;20025;-74
2021/08/21 05:29:36;;;;;;;13.05;10.10;;;14.00;99.90;;;;;;5031075;28;20916;-74
2021/08/21 05:32:02;;;;;;;14.38;10.40;;;14.10;99.90;;;;;;5030886;28;20446;-74
2021/08/21 05:34:27;;;;;;;13.98;10.50;;;14.30;99.90;;;;;;5030724;28;20100;-73
2021/08/21 05:36:53;;;;;;;14.82;11.23;;;14.40;99.90;;;;;;5030836;28;20037;-74
2021/08/21 05:39:19;;;;;;;11.65;10.15;;;14.50;99.90;;;;;;5026977;28;20739;-77
2021/08/21 05:41:44;;;;;;;16.00;11.20;;;14.50;99.90;;;;;;5025091;28;20040;-77
2021/08/21 05:44:10;;;;;;;13.30;10.57;;;14.60;99.90;;;;;;5025188;28;20442;-77
2021/08/21 05:46:35;;;;;;;14.77;11.02;;;14.60;99.90;;;;;;5025813;28;20391;-76
2021/08/21 05:49:01;;;;;;;11.00;9.68;;;14.60;99.90;;;;;;5020266;28;20045;-75
2021/08/21 05:51:29;;;;;;;9.82;8.63;;;14.50;99.90;;;;;;5018219;28;20411;-75
2021/08/21 05:53:55;;;;;;;11.30;8.02;;;14.40;99.90;;;;;;5021097;28;20030;-76
2021/08/21 05:56:21;;;;;;;11.25;7.78;;;14.40;99.90;;;;;;5018999;28;20387;-75
2021/08/21 05:58:47;;;;;;;17.40;7.85;;;14.40;99.90;;;;;;5020768;28;20033;-76
2021/08/21 06:01:12;;;;;;;8.82;7.97;;;14.30;99.90;;;;;;5021131;28;20026;-76
2021/08/21 06:03:38;;;;;;;9.07;8.10;;;14.40;99.90;;;;;;5019461;28;20038;-76
2021/08/21 06:06:04;;;;;;;11.43;7.95;;;14.30;99.90;;;;;;5019723;28;20044;-74
2021/08/21 06:08:29;;;;;;;10.00;8.13;;;14.30;99.90;;;;;;5030579;28;20022;-75
2021/08/21 06:10:57;;;;;;;9.35;8.00;;;14.30;99.90;;;;;;5023656;28;20037;-76
2021/08/21 06:13:23;;;;;;;8.27;7.35;;;14.40;99.90;;;;;;5018008;28;20492;-76
2021/08/21 06:15:48;;;;;;;10.13;8.23;;;14.40;99.90;;;;;;5019292;28;20053;-76
2021/08/21 06:18:14;;;;;;;9.27;7.25;;;14.50;99.90;;;;;;5019837;28;20052;-76
2021/08/21 06:20:40;;;;;;;9.35;7.65;;;14.60;99.90;;;;;;5019793;28;20030;-76
2021/08/21 06:23:06;;;;;;;9.25;7.95;;;14.70;99.90;;;;;;5017971;28;20026;-76
2021/08/21 06:25:31;;;;;;;10.20;7.22;;;14.70;99.90;;;;;;5021779;28;20055;-75
2021/08/21 06:27:57;;;;;;;12.55;7.53;;;14.60;99.90;;;;;;5025038;28;20057;-72
2021/08/21 06:30:23;;;;;;;9.10;6.72;;;14.70;99.90;;;;;;5034326;28;20056;-73
2021/08/21 06:32:48;;;;;;;10.05;6.75;;;14.80;99.90;;;;;;5034001;28;20053;-72
2021/08/21 06:35:14;;;;;;;9.65;6.72;;;15.00;99.90;;;;;;5040447;28;20025;-72
2021/08/21 06:37:40;;;;;;;9.68;7.10;;;15.10;99.90;;;;;;5039589;28;20025;-74
2021/08/21 06:40:06;;;;;;;8.57;7.43;;;15.20;99.90;;;;;;5035523;28;20029;-74
2021/08/21 06:42:32;;;;;;;10.80;6.80;;;15.30;99.90;;;;;;5033024;28;20032;-71
2021/08/21 06:44:58;;;;;;;9.15;6.95;;;15.40;99.90;;;;;;5033690;28;20025;-71
2021/08/21 06:47:23;;;;;;;10.30;7.13;;;15.60;99.90;;;;;;5033861;28;20079;-72
2021/08/21 06:49:49;;;;;;;8.55;7.65;;;15.70;99.90;;;;;;5033454;28;20017;-74
2021/08/21 06:52:15;;;;;;;7.97;6.75;;;15.80;99.90;;;;;;5025002;28;20058;-72
2021/08/21 06:54:40;;;;;;;12.43;7.30;;;15.70;99.90;;;;;;5015687;28;20034;-71
2021/08/21 06:57:06;;;;;;;8.93;7.25;;;15.70;99.90;;;;;;5014088;28;20034;-72
2021/08/21 06:59:31;;;;;;;10.35;6.80;;;15.60;99.90;;;;;;5014313;28;20492;-72
2021/08/21 07:01:57;;;;;;;8.15;6.82;;;15.50;99.90;;;;;;5013738;28;20034;-72
2021/08/21 07:04:23;;;;;;;9.45;7.05;;;15.60;99.90;;;;;;5013572;28;20131;-73
2021/08/21 07:06:48;;;;;;;8.57;7.20;;;15.70;99.90;;;;;;5014193;28;20054;-72
2021/08/21 07:09:14;;;;;;;9.57;7.22;;;15.80;99.90;;;;;;5012857;28;20114;-74
2021/08/21 07:11:40;;;;;;;9.00;7.80;;;15.80;99.90;;;;;;5013955;28;20022;-74
2021/08/21 07:14:05;;;;;;;9.48;7.13;;;15.90;99.90;;;;;;5013796;28;20025;-71
2021/08/21 07:16:31;;;;;;;11.60;7.38;;;16.00;99.90;;;;;;5013022;28;20433;-72
2021/08/21 07:18:56;;;;;;;9.27;7.25;;;16.20;99.90;;;;;;5016400;28;20029;-72
2021/08/21 07:21:23;;;;;;;10.10;7.07;;;16.40;99.90;;;;;;5033291;28;20033;-73
2021/08/21 07:23:49;;;;;;;12.02;7.13;;;16.40;99.90;;;;;;5032056;28;20053;-72
2021/08/21 07:26:15;;;;;;;16.10;7.55;;;16.60;99.90;;;;;;5032830;28;20428;-73
2021/08/21 07:28:40;;;;;;;7.68;6.80;;;16.60;99.90;;;;;;5029154;28;20384;-71
2021/08/21 07:31:06;;;;;;;9.98;7.00;;;16.80;99.90;;;;;;5022790;28;20030;-71
2021/08/21 07:33:32;;;;;;;7.68;6.57;;;16.90;99.90;;;;;;5024486;28;20021;-72
2021/08/21 07:35:57;;;;;;;8.75;7.45;;;17.10;99.90;;;;;;5030898;28;20490;-72
2021/08/21 07:38:23;;;;;;;6.95;6.28;;;17.10;99.90;;;;;;5033362;28;20025;-72
2021/08/21 07:40:50;;;;;;;7.30;5.72;;;17.10;99.90;;;;;;5033187;28;20025;-72
2021/08/21 07:43:15;;;;;;;9.20;6.00;;;17.30;99.90;;;;;;5033189;28;20035;-73
2021/08/21 07:45:42;;;;;;;9.52;6.75;;;17.60;99.90;;;;;;5031947;28;20085;-72
2021/08/21 07:48:08;;;;;;;7.20;6.50;;;17.70;99.90;;;;;;5032144;28;20021;-72
2021/08/21 07:50:34;;;;;;;6.43;5.57;;;17.70;99.90;;;;;;5032894;28;20404;-72
2021/08/21 07:52:59;;;;;;;8.65;5.82;;;17.80;99.90;;;;;;5032893;28;20025;-72
2021/08/21 07:55:25;;;;;;;9.18;5.72;;;17.70;99.90;;;;;;5029840;28;20025;-71
2021/08/21 07:57:51;;;;;;;9.18;5.85;;;18.00;99.90;;;;;;5033074;28;20040;-71
2021/08/21 08:00:17;;;;;;;9.35;6.35;;;18.50;99.90;;;;;;5032984;28;20475;-72
2021/08/21 08:02:45;;;;;;;6.03;5.35;;;18.90;99.90;;;;;;5031094;28;20171;-72
2021/08/21 08:05:12;;;;;;;7.30;5.05;;;19.00;99.90;;;;;;5029061;28;20075;-73
2021/08/21 08:07:37;;;;;;;8.70;5.40;;;19.10;99.90;;;;;;5032830;28;20037;-74
2021/08/21 08:10:03;;;;;;;5.40;4.90;;;19.30;99.90;;;;;;5032683;28;20494;-72
2021/08/21 08:12:29;;;;;;;6.75;4.68;;;19.50;99.90;;;;;;5032629;28;20137;-72
2021/08/21 08:14:55;;;;;;;6.22;4.38;;;19.80;99.90;;;;;;5031984;28;20124;-72
2021/08/21 08:17:20;;;;;;;5.35;3.90;;;19.90;99.90;;;;;;5032419;28;20044;-72
2021/08/21 08:19:46;;;;;;;6.55;4.28;;;20.30;99.90;;;;;;5032622;28;20084;-72
2021/08/21 08:22:12;;;;;;;4.20;3.88;;;20.70;99.90;;;;;;5032595;28;20450;-73
2021/08/21 08:24:37;;;;;;;7.65;4.28;;;21.10;99.90;;;;;;5031984;28;20029;-72
2021/08/21 08:27:03;;;;;;;4.40;4.00;;;21.50;99.90;;;;;;5033260;28;20104;-71
2021/08/21 08:29:29;;;;;;;4.75;3.42;;;21.70;99.90;;;;;;5032190;28;20021;-69
2021/08/21 08:31:55;;;;;;;7.60;3.95;;;22.50;99.90;;;;;;5032887;28;20072;-70
2021/08/21 08:34:21;;;;;;;4.18;3.78;;;22.40;99.90;;;;;;5032351;28;20057;-75
2021/08/21 08:36:46;;;;;;;5.15;3.78;;;22.40;99.90;;;;;;5032713;28;20419;-75
2021/08/21 08:39:12;;;;;;;4.20;2.97;;;22.90;99.90;;;;;;5032683;28;20407;-75
2021/08/21 08:41:41;;;;;;;6.05;3.75;;;23.80;99.90;;;;;;5030849;28;20032;-76
2021/08/21 08:44:12;;;;;;;3.70;3.28;;;24.10;99.90;;;;;;5027508;28;20021;-75
2021/08/21 08:46:39;;;;;;;4.10;3.47;;;24.80;99.90;;;;;;5019389;28;20106;-76
2021/08/21 08:49:05;;;;;;;4.03;3.28;;;24.90;99.90;;;;;;5025793;28;20272;-75
2021/08/21 08:51:34;;;;;;;4.15;3.53;;;25.40;99.90;;;;;;5028793;28;20033;-76
2021/08/21 08:54:00;;;;;;;3.70;3.40;;;25.50;99.90;;;;;;5024893;28;20034;-75
2021/08/21 08:56:26;;;;;;;3.83;3.53;;;25.70;99.90;;;;;;5018988;28;20018;-77
2021/08/21 08:58:51;;;;;;;3.97;3.47;;;26.40;99.90;;;;;;5012032;28;20033;-77
2021/08/21 09:01:17;;;;;;;3.60;3.30;;;25.60;99.90;;;;;;5012055;28;20041;-76
2021/08/21 09:03:43;;;;;;;5.50;3.15;;;25.70;99.90;;;;;;5011878;28;20115;-76
2021/08/21 09:06:13;;;;;;;4.80;3.20;;;26.40;99.90;;;;;;5011235;28;20083;-77
2021/08/21 09:08:40;;;;;;;4.00;3.30;;;27.00;99.90;;;;;;5012215;28;20022;-74
2021/08/21 09:11:23;;;;;;;3.22;2.92;;;27.40;99.90;;;;;;5011066;28;20022;-76
2021/08/21 09:13:50;;;;;;;7.65;3.42;;;27.50;99.90;;;;;;5013725;28;20116;-76
2021/08/21 09:16:27;;;;;;;4.13;3.33;;;27.00;99.90;;;;;;5008486;28;20022;-75
2021/08/21 09:19:04;;;;;;;3.17;2.90;;;27.30;99.90;;;;;;5014838;28;20090;-76
2021/08/21 09:21:30;;;;;;;4.80;3.08;;;28.20;99.90;;;;;;5022404;28;20030;-77
2021/08/21 09:23:56;;;;;;;5.05;3.13;;;27.60;99.90;;;;;;5012048;28;20025;-77
2021/08/21 09:26:27;;;;;;;5.03;3.10;;;28.30;99.90;;;;;;5011321;28;20021;-77
2021/08/21 09:28:56;;;;;;;5.90;3.03;;;28.70;99.90;;;;;;5011712;28;20041;-77
2021/08/21 09:31:24;;;;;;;5.97;3.00;;;29.40;99.90;;;;;;5012052;28;20033;-77
2021/08/21 09:33:53;;;;;;;3.22;2.90;;;30.10;98.00;;;;;;5012047;28;20018;-75
2021/08/21 09:36:29;;;;;;;3.28;2.80;;;28.90;98.50;;;;;;5010936;28;20028;-76
2021/08/21 09:38:55;;;;;;;5.53;3.42;;;29.10;99.10;;;;;;5011550;28;20029;-76
2021/08/21 09:41:21;;;;;;;4.30;3.03;;;29.80;97.60;;;;;;5010313;28;20084;-77
2021/08/21 09:43:47;;;;;;;4.70;3.00;;;30.00;97.20;;;;;;5011994;28;20357;-76
2021/08/21 09:46:20;;;;;;;3.72;3.40;;;30.00;97.70;;;;;;5010336;28;20026;-70
2021/08/21 09:49:06;;;;;;;3.40;3.10;;;28.80;97.60;;;;;;5012731;28;20113;-70
2021/08/21 09:51:40;;;;;;;4.78;3.22;;;29.30;98.90;;;;;;5030966;28;20022;-70
2021/08/21 09:54:09;;;;;;;3.53;3.28;;;30.10;98.10;;;;;;5031017;28;20021;-70
2021/08/21 09:56:37;;;;;;;3.55;2.80;;;31.20;96.10;;;;;;5030306;28;20025;-70
2021/08/21 09:59:04;;;;;;;3.33;2.92;;;31.00;95.50;;;;;;5031930;28;20021;-69
2021/08/21 10:01:31;;;;;;;5.53;2.70;;;29.70;95.90;;;;;;5035020;28;20087;-70
2021/08/21 10:03:58;;;;;;;4.78;3.17;;;29.70;96.80;;;;;;5034945;28;20068;-72
2021/08/21 10:06:25;;;;;;;3.65;2.83;;;29.90;97.10;;;;;;5034223;28;20553;-70
2021/08/21 10:08:59;;;;;;;5.70;3.15;;;30.30;95.80;;;;;;5035171;28;20112;-69
2021/08/21 10:11:26;;;;;;;3.40;3.10;;;30.70;94.50;;;;;;5035128;28;20026;-68
2021/08/21 10:13:52;;;;;;;3.70;3.40;;;31.20;94.80;;;;;;5035048;28;20044;-69
2021/08/21 10:16:19;;;;;;;4.28;3.63;;;30.60;94.40;;;;;;5033400;28;20791;-71
2021/08/21 10:18:48;;;;;;;3.75;3.40;;;31.30;94.40;;;;;;5034417;28;20060;-71
2021/08/21 10:21:15;;;;;;;6.65;3.50;;;31.60;94.40;;;;;;5034783;28;20539;-71
2021/08/21 10:23:44;;;;;;;6.63;3.58;;;31.60;92.60;;;;;;5033811;28;20022;-70
2021/08/21 10:26:32;;;;;;;3.80;3.35;;;31.00;91.90;;;;;;5034057;28;20434;-70
2021/08/21 10:28:59;;;;;;;3.65;3.28;;;30.70;93.30;;;;;;5034448;28;20017;-68
2021/08/21 10:31:39;;;;;;;3.67;3.30;;;31.20;93.40;;;;;;5034583;28;20079;-70
2021/08/21 10:34:06;;;;;;;6.18;3.05;;;32.00;93.60;;;;;;5034442;28;20083;-70
2021/08/21 10:36:51;;;;;;;3.75;3.42;;;32.30;92.40;;;;;;5033235;28;20926;-71
2021/08/21 10:39:30;;;;;;;3.58;3.28;;;33.20;91.00;;;;;;5022357;28;20101;-71
2021/08/21 10:41:56;;;;;;;6.50;3.22;;;32.10;90.50;;;;;;5034525;28;20018;-71
2021/08/21 10:44:42;;;;;;;3.90;3.20;;;31.20;91.30;;;;;;5023570;28;20036;-72
2021/08/21 10:47:29;;;;;;;3.25;3.05;;;30.70;93.90;;;;;;5014314;28;20097;-72
2021/08/21 10:49:54;;;;;;;19.38;3.92;;;31.60;93.70;;;;;;5024394;28;20029;-72
2021/08/21 10:52:46;;;;;;;3.50;3.20;;;32.20;94.10;;;;;;5034168;28;20032;-71
2021/08/21 10:55:42;;;;;;;5.55;3.50;;;33.60;91.70;;;;;;5033129;28;20119;-71
2021/08/21 10:58:18;;;;;;;6.03;4.03;;;32.80;91.00;;;;;;5007157;28;20041;-69
2021/08/21 11:00:45;;;;;;;4.10;3.70;;;32.10;90.20;;;;;;5014254;28;20491;-69
2021/08/21 11:03:13;;;;;;;5.05;3.38;;;31.70;90.40;;;;;;5013938;28;20041;-71
2021/08/21 11:05:54;;;;;;;5.20;3.63;;;31.70;90.70;;;;;;5013217;28;20021;-69
2021/08/21 11:08:25;;;;;;;3.80;3.35;;;31.80;90.50;;;;;;5014060;28;20571;-70
2021/08/21 11:14:20;;;;;;;4.07;3.67;;;33.00;87.40;;;;;;4953200;29;20059;-71
2021/08/21 11:19:28;;;;;;;3.92;3.63;;;31.60;91.10;;;;;;4953358;28;20462;-70
2021/08/21 11:22:16;;;;;;;3.90;3.55;;;31.80;90.90;;;;;;4953136;29;20470;-70
2021/08/21 11:24:51;;;;;;;3.58;3.30;;;32.10;91.00;;;;;;4952350;29;20035;-71
2021/08/21 11:27:25;;;;;;;5.97;3.55;;;32.30;90.70;;;;;;4952728;28;20506;-70
2021/08/21 11:30:12;;;;;;;3.90;3.40;;;32.50;91.00;;;;;;4953203;29;20505;-69
2021/08/21 11:32:41;;;;;;;5.15;3.95;;;32.70;92.10;;;;;;4952683;29;20040;-70
2021/08/21 11:35:07;;;;;;;4.90;3.30;;;33.30;89.00;;;;;;4951450;29;20035;-70
2021/08/21 11:37:34;;;;;;;4.88;3.65;;;33.70;90.40;;;;;;4952700;28;20104;-70
2021/08/21 11:40:00;;;;;;;3.90;3.60;;;32.70;89.50;;;;;;4952768;29;20533;-69
2021/08/21 11:42:44;;;;;;;5.57;3.78;;;31.80;89.40;;;;;;4952662;29;20043;-69
2021/08/21 11:45:14;;;;;;;3.83;3.28;;;31.80;91.50;;;;;;4986863;28;20030;-69
2021/08/21 11:47:39;;;;;;;4.10;3.80;;;32.10;92.30;;;;;;5013154;28;20021;-69
2021/08/21 11:50:35;;;;;;;3.60;3.30;;;31.70;91.90;;;;;;5025415;28;20111;-70
2021/08/21 11:53:24;;;;;;;4.25;3.90;;;31.70;91.70;;;;;;5016992;28;20080;-70
2021/08/21 11:55:54;;;;;;;5.18;3.65;;;32.10;92.90;;;;;;5032249;28;20025;-70
2021/08/21 11:58:30;;;;;;;4.15;3.85;;;32.50;91.60;;;;;;5031175;28;20026;-71
2021/08/21 12:01:20;;;;;;;4.20;3.80;;;32.60;90.20;;;;;;5033033;28;20052;-70
2021/08/21 12:06:25;;;;;;;3.67;3.45;;;32.90;90.10;;;;;;5031891;28;20036;-71
2021/08/21 12:09:07;;;;;;;4.60;4.25;;;32.50;90.10;;;;;;5032740;28;20113;-70
2021/08/21 12:11:32;;;;;;;3.42;3.13;;;33.00;90.90;;;;;;5032837;28;20682;-71
2021/08/21 12:14:00;;;;;;;3.83;3.55;;;33.50;90.60;;;;;;5032563;28;20033;-71
2021/08/21 12:16:30;;;;;;;4.40;3.28;;;34.50;86.10;;;;;;5031486;28;20087;-72
2021/08/21 12:18:57;;;;;;;5.53;3.50;;;34.00;86.80;;;;;;5031682;28;20104;-71
2021/08/21 12:21:23;;;;;;;3.97;3.53;;;34.20;87.30;;;;;;5032585;28;20100;-73
2021/08/21 12:23:51;;;;;;;5.10;3.60;;;34.50;87.20;;;;;;5032268;28;20083;-73
2021/08/21 12:26:42;;;;;;;5.10;3.97;;;34.50;87.00;;;;;;5031702;28;20030;-73
2021/08/21 12:29:28;;;;;;;4.23;3.83;;;33.70;84.50;;;;;;5032350;28;20014;-72
2021/08/21 12:31:55;;;;;;;6.65;4.10;;;32.80;86.40;;;;;;5032084;28;20299;-72
2021/08/21 12:34:24;;;;;;;3.38;3.17;;;33.00;85.60;;;;;;5031216;28;20235;-74
2021/08/21 12:36:50;;;;;;;5.60;4.15;;;33.10;86.40;;;;;;5020410;28;20487;-74
2021/08/21 12:39:24;;;;;;;7.47;3.90;;;34.10;88.80;;;;;;5021565;28;20181;-73
2021/08/21 12:42:03;;;;;;;4.85;4.03;;;33.90;82.30;;;;;;5020539;28;20018;-74
2021/08/21 12:44:36;;;;;;;4.20;3.90;;;33.40;82.70;;;;;;5016963;28;20113;-73
2021/08/21 12:47:11;;;;;;;4.65;4.13;;;33.10;82.90;;;;;;5019038;28;20014;-73
2021/08/21 12:49:38;;;;;;;4.70;3.65;;;32.80;83.90;;;;;;5022049;28;20021;-72
2021/08/21 12:52:13;;;;;;;4.53;3.92;;;32.50;85.40;;;;;;5020127;28;20395;-74